Time;durP1;ratioP1;P1;durP2;ratioP2;P2;SDS_P1;SDS_P2;PMS_P1;PMS_P2;Temp;Humidity;BMP_temperature;BMP_pressure;BME280_temperature;BME280_humidity;BME280_pressure;Samples;Min_cycle;Max_cycle;Signal;HPM_P1;HPM_P2
2024/04/25 00:00:55;;;;;;;4.95;3.00;;;2.90;26.60;;;;;;5373798;26;20222;-70
2024/04/25 00:03:21;;;;;;;6.53;3.13;;;3.00;25.90;;;;;;5374218;26;20227;-69
2024/04/25 00:05:47;;;;;;;3.53;2.83;;;3.10;25.10;;;;;;5373542;26;20273;-70
2024/04/25 00:08:13;;;;;;;4.20;2.73;;;3.20;24.00;;;;;;5373994;26;20457;-70
2024/04/25 00:10:40;;;;;;;4.73;3.17;;;3.30;22.40;;;;;;5373830;26;20257;-70
2024/04/25 00:13:06;;;;;;;6.05;3.10;;;3.30;22.00;;;;;;5373881;26;20445;-70
2024/04/25 00:15:32;;;;;;;3.70;2.42;;;3.40;21.70;;;;;;5373256;26;20307;-70
2024/04/25 00:17:57;;;;;;;4.60;3.42;;;3.50;21.40;;;;;;5373724;26;20286;-71
2024/04/25 00:20:23;;;;;;;4.27;2.97;;;3.50;20.70;;;;;;5371827;26;20563;-71
2024/04/25 00:22:49;;;;;;;5.30;3.37;;;3.50;19.10;;;;;;5373794;26;20220;-70
2024/04/25 00:25:15;;;;;;;4.23;2.23;;;3.50;19.20;;;;;;5373460;26;20227;-71
2024/04/25 00:27:40;;;;;;;4.20;2.80;;;3.60;18.80;;;;;;5371899;26;20462;-70
2024/04/25 00:30:07;;;;;;;3.23;2.60;;;3.50;18.10;;;;;;5373127;26;20233;-71
2024/04/25 00:32:33;;;;;;;4.75;3.10;;;3.50;17.40;;;;;;5372727;26;20498;-70
2024/04/25 00:34:58;;;;;;;4.20;2.77;;;3.40;16.70;;;;;;5371043;26;20236;-69
2024/04/25 00:37:24;;;;;;;4.90;3.30;;;3.30;16.70;;;;;;5372829;26;20219;-70
2024/04/25 00:39:51;;;;;;;4.47;2.92;;;3.10;17.90;;;;;;5373141;26;20229;-69
2024/04/25 00:42:23;;;;;;;4.38;3.10;;;3.00;17.30;;;;;;5373523;26;20697;-69
2024/04/25 00:44:49;;;;;;;9.45;3.10;;;2.90;17.90;;;;;;5373651;26;20344;-69
2024/04/25 00:47:20;;;;;;;5.30;3.08;;;2.80;18.70;;;;;;5373097;26;20585;-70
2024/04/25 00:49:46;;;;;;;4.20;3.25;;;2.70;19.70;;;;;;5373000;26;20234;-71
2024/04/25 00:52:20;;;;;;;9.75;2.95;;;2.60;20.60;;;;;;5371399;26;20268;-68
2024/04/25 00:54:46;;;;;;;5.18;3.20;;;2.60;21.90;;;;;;5373355;26;20252;-70
2024/04/25 00:57:14;;;;;;;4.22;2.60;;;2.60;21.50;;;;;;5370923;26;20239;-70
2024/04/25 00:59:42;;;;;;;5.30;3.47;;;2.60;22.10;;;;;;5372644;26;20685;-69
2024/04/25 01:02:09;;;;;;;4.78;3.50;;;2.60;22.20;;;;;;5372372;26;20216;-71
2024/04/25 01:04:36;;;;;;;4.57;3.22;;;2.60;20.20;;;;;;5370639;26;20252;-69
2024/04/25 01:07:03;;;;;;;3.83;2.75;;;2.60;21.50;;;;;;5372194;26;20812;-69
2024/04/25 01:09:29;;;;;;;4.55;3.58;;;2.50;22.70;;;;;;5372069;26;20230;-70
2024/04/25 01:11:56;;;;;;;6.32;3.80;;;2.50;22.00;;;;;;5371298;26;20693;-69
2024/04/25 01:14:22;;;;;;;6.40;3.78;;;2.50;22.70;;;;;;5371363;26;20226;-69
2024/04/25 01:16:47;;;;;;;5.20;3.87;;;2.50;22.80;;;;;;5371245;26;20465;-68
2024/04/25 01:19:14;;;;;;;5.40;3.70;;;2.50;22.70;;;;;;5371428;26;21149;-69
2024/04/25 01:21:40;;;;;;;4.70;3.80;;;2.50;22.70;;;;;;5371280;26;20275;-70
2024/04/25 01:24:08;;;;;;;6.03;3.40;;;2.50;24.30;;;;;;5371434;26;20287;-68
2024/04/25 01:26:35;;;;;;;5.38;3.72;;;2.60;23.80;;;;;;5371437;26;20231;-68
2024/04/25 01:29:03;;;;;;;4.57;3.45;;;2.70;25.20;;;;;;5371582;26;20379;-69
2024/04/25 01:31:30;;;;;;;4.53;3.47;;;2.90;23.50;;;;;;5371335;26;20285;-69
2024/04/25 01:33:56;;;;;;;6.03;3.55;;;3.00;22.70;;;;;;5370817;26;20268;-69
2024/04/25 01:36:22;;;;;;;5.57;3.35;;;2.90;22.00;;;;;;5370854;26;20327;-69
2024/04/25 01:38:48;;;;;;;5.60;3.63;;;2.90;20.60;;;;;;5369288;26;20254;-70
2024/04/25 01:41:13;;;;;;;6.27;3.60;;;2.90;19.60;;;;;;5370903;26;20752;-70
2024/04/25 01:43:39;;;;;;;6.17;2.87;;;2.70;19.50;;;;;;5370899;26;20913;-69
2024/04/25 01:46:04;;;;;;;4.30;3.07;;;2.60;20.70;;;;;;5370608;26;20608;-70
2024/04/25 01:48:30;;;;;;;4.90;3.20;;;2.60;20.90;;;;;;5398118;21;20275;-69
2024/04/25 01:50:55;;;;;;;5.17;3.30;;;2.50;21.80;;;;;;5415684;26;20309;-72
2024/04/25 01:53:21;;;;;;;5.33;3.13;;;2.40;22.60;;;;;;5415425;26;20223;-69
2024/04/25 01:55:47;;;;;;;4.70;3.17;;;2.30;22.70;;;;;;5444751;26;20228;-70
2024/04/25 01:58:12;;;;;;;5.40;3.60;;;2.20;24.60;;;;;;5417509;26;20224;-69
2024/04/25 02:00:38;;;;;;;5.73;4.30;;;2.30;25.10;;;;;;5417278;26;20282;-70
2024/04/25 02:03:03;;;;;;;4.97;4.10;;;2.30;24.80;;;;;;5416991;26;20228;-70
2024/04/25 02:05:29;;;;;;;5.53;2.73;;;2.30;24.90;;;;;;5415157;26;20259;-70
2024/04/25 02:07:54;;;;;;;4.67;3.30;;;2.30;25.10;;;;;;5417235;26;20223;-70
2024/04/25 02:10:20;;;;;;;5.10;3.60;;;2.30;25.80;;;;;;5415141;26;20279;-71
2024/04/25 02:12:46;;;;;;;5.40;3.60;;;2.30;26.10;;;;;;5417135;26;20813;-70
2024/04/25 02:15:11;;;;;;;6.40;4.67;;;2.30;25.80;;;;;;5416548;26;20260;-71
2024/04/25 02:17:39;;;;;;;6.13;3.90;;;2.40;26.70;;;;;;5417374;26;20303;-71
2024/04/25 02:25:13;;;;;;;7.72;4.22;;;2.40;26.70;;;;;;5414789;26;20239;-71
2024/04/25 02:25:36;;;;;;;4.10;3.05;;;2.60;25.20;;;;;;5416056;26;20324;-71
2024/04/25 02:28:01;;;;;;;5.70;3.60;;;2.70;24.80;;;;;;5416713;26;20231;-71
2024/04/25 02:30:27;;;;;;;7.90;4.60;;;2.70;24.20;;;;;;5416346;26;20276;-70
2024/04/25 02:32:53;;;;;;;5.33;3.87;;;2.80;23.80;;;;;;5415144;26;20239;-71
2024/04/25 02:35:18;;;;;;;4.97;3.70;;;2.80;22.90;;;;;;5414140;26;20245;-72
2024/04/25 02:37:44;;;;;;;5.43;3.50;;;2.80;22.90;;;;;;5414823;26;20703;-72
2024/04/25 02:40:10;;;;;;;4.40;3.20;;;2.70;22.10;;;;;;5415971;26;20606;-72
2024/04/25 02:42:35;;;;;;;5.63;3.40;;;2.70;22.00;;;;;;5416479;26;20230;-71
2024/04/25 02:45:01;;;;;;;6.47;3.27;;;2.70;22.80;;;;;;5416114;26;20446;-72
2024/04/25 02:47:26;;;;;;;6.50;4.20;;;2.70;22.80;;;;;;5416395;26;20260;-71
2024/04/25 02:49:52;;;;;;;5.40;4.10;;;2.70;22.40;;;;;;5415982;26;20283;-70
2024/04/25 02:52:17;;;;;;;6.07;3.40;;;2.70;21.80;;;;;;5414304;26;20379;-71
2024/04/25 02:54:43;;;;;;;4.70;3.03;;;2.70;21.70;;;;;;5415706;26;20326;-71
2024/04/25 02:57:08;;;;;;;3.70;3.30;;;2.80;21.20;;;;;;5417992;26;20270;-71
2024/04/25 02:59:34;;;;;;;5.30;3.67;;;2.80;21.80;;;;;;5418031;26;20284;-70
2024/04/25 03:01:59;;;;;;;4.50;3.20;;;2.80;20.90;;;;;;5417538;26;20232;-71
2024/04/25 03:04:25;;;;;;;5.93;3.73;;;2.80;19.90;;;;;;5417766;26;20233;-71
2024/04/25 03:06:50;;;;;;;5.33;3.30;;;2.90;20.10;;;;;;5419160;26;20578;-72
2024/04/25 03:09:16;;;;;;;4.30;3.07;;;3.00;19.20;;;;;;5419342;26;22020;-71
2024/04/25 03:11:41;;;;;;;4.97;3.40;;;3.00;19.80;;;;;;5419804;26;20275;-71
2024/04/25 03:14:07;;;;;;;4.50;2.93;;;3.10;18.90;;;;;;5418105;26;20289;-71
2024/04/25 03:16:33;;;;;;;4.80;2.97;;;3.20;17.80;;;;;;5420731;26;20287;-71
2024/04/25 03:18:58;;;;;;;5.53;3.50;;;3.20;17.60;;;;;;5420534;26;20240;-70
2024/04/25 03:21:24;;;;;;;5.40;3.43;;;3.20;17.40;;;;;;5418387;26;20252;-71
2024/04/25 03:23:49;;;;;;;6.53;3.90;;;3.20;17.50;;;;;;5419762;26;20334;-71
2024/04/25 03:26:15;;;;;;;4.60;3.13;;;3.30;16.00;;;;;;5417077;26;20223;-70
2024/04/25 03:28:41;;;;;;;4.90;2.87;;;3.30;15.40;;;;;;5419061;26;20234;-70
2024/04/25 03:31:06;;;;;;;5.50;3.70;;;3.30;15.90;;;;;;5418107;26;20225;-72
2024/04/25 03:33:32;;;;;;;7.13;3.97;;;3.30;15.90;;;;;;5417978;26;20229;-70
2024/04/25 03:35:57;;;;;;;4.23;3.27;;;3.30;15.70;;;;;;5417583;26;20254;-70
2024/04/25 03:38:23;;;;;;;5.37;3.03;;;3.40;15.50;;;;;;5417983;26;20220;-71
2024/04/25 03:40:48;;;;;;;7.30;3.00;;;3.40;15.30;;;;;;5418768;26;20272;-70
2024/04/25 03:43:14;;;;;;;5.70;3.93;;;3.50;15.80;;;;;;5418775;26;20221;-70
2024/04/25 03:45:39;;;;;;;4.77;3.30;;;3.60;15.00;;;;;;5417926;26;20222;-70
2024/04/25 03:48:05;;;;;;;5.40;3.10;;;3.60;13.00;;;;;;5417416;26;20262;-71
2024/04/25 03:50:31;;;;;;;4.50;2.97;;;3.60;13.20;;;;;;5416833;26;20238;-71
2024/04/25 03:52:57;;;;;;;4.30;2.97;;;3.70;12.30;;;;;;5418555;26;20596;-70
2024/04/25 03:55:22;;;;;;;4.23;2.70;;;3.70;10.70;;;;;;5417904;26;20233;-70
2024/04/25 03:57:48;;;;;;;5.70;3.80;;;3.70;11.60;;;;;;5417345;26;20751;-71
2024/04/25 04:00:14;;;;;;;7.67;3.30;;;3.70;11.50;;;;;;5418714;26;20657;-71
2024/04/25 04:02:39;;;;;;;5.10;3.23;;;3.70;10.70;;;;;;5420144;26;20254;-71
2024/04/25 04:05:05;;;;;;;5.93;3.60;;;3.80;10.80;;;;;;5417982;26;20221;-71
2024/04/25 04:07:30;;;;;;;4.80;2.83;;;3.80;10.80;;;;;;5416020;26;20224;-70
2024/04/25 04:09:56;;;;;;;5.00;3.60;;;3.70;10.70;;;;;;5416917;26;20243;-71
2024/04/25 04:12:22;;;;;;;5.70;4.43;;;3.70;10.70;;;;;;5417914;26;20235;-70
2024/04/25 04:14:48;;;;;;;4.80;3.23;;;3.60;10.70;;;;;;5418942;26;20229;-70
2024/04/25 04:17:14;;;;;;;4.67;3.90;;;3.60;11.60;;;;;;5418534;26;20988;-71
2024/04/25 04:19:39;;;;;;;9.50;2.90;;;3.50;12.20;;;;;;5418260;26;20961;-70
2024/04/25 04:22:05;;;;;;;5.60;3.80;;;3.60;13.00;;;;;;5418615;26;20260;-71
2024/04/25 04:24:31;;;;;;;5.30;3.27;;;3.50;12.90;;;;;;5416575;26;20226;-70
2024/04/25 04:26:56;;;;;;;5.70;3.50;;;3.60;12.30;;;;;;5417989;26;20643;-71
2024/04/25 04:29:22;;;;;;;6.73;3.47;;;3.50;12.90;;;;;;5418141;26;20322;-70
2024/04/25 04:31:48;;;;;;;6.20;4.23;;;3.60;13.30;;;;;;5418705;26;20265;-70
2024/04/25 04:34:14;;;;;;;5.23;3.80;;;3.60;12.80;;;;;;5418365;26;20503;-70
2024/04/25 04:36:40;;;;;;;5.40;3.40;;;3.60;13.20;;;;;;5416152;26;20247;-71
2024/04/25 04:39:06;;;;;;;8.50;5.10;;;3.70;13.30;;;;;;5416515;26;20281;-71
2024/04/25 04:41:32;;;;;;;4.75;3.38;;;3.70;12.10;;;;;;5416455;26;20235;-71
2024/04/25 04:43:58;;;;;;;8.53;4.03;;;3.80;11.90;;;;;;5416524;26;20264;-70
2024/04/25 04:46:24;;;;;;;5.30;3.70;;;3.80;11.60;;;;;;5415660;26;20564;-70
2024/04/25 04:48:50;;;;;;;4.87;2.70;;;3.80;11.50;;;;;;5415146;26;20288;-70
2024/04/25 04:51:18;;;;;;;6.80;3.70;;;3.80;11.80;;;;;;5417517;26;20288;-69
2024/04/25 04:53:44;;;;;;;4.65;3.70;;;3.90;10.90;;;;;;5418700;26;20305;-70
2024/04/25 04:56:10;;;;;;;6.63;3.37;;;3.90;11.70;;;;;;5416092;26;20224;-70
2024/04/25 04:58:35;;;;;;;6.50;3.90;;;3.90;10.90;;;;;;5418219;26;20489;-70
2024/04/25 05:01:01;;;;;;;4.73;3.47;;;3.90;10.90;;;;;;5418213;26;20225;-71
2024/04/25 05:03:27;;;;;;;5.77;3.43;;;;;;;;;;5417969;26;20269;-70
2024/04/25 05:05:52;;;;;;;5.40;3.47;;;4.10;9.50;;;;;;5418368;26;20237;-70
2024/04/25 05:08:18;;;;;;;4.27;2.90;;;4.10;9.60;;;;;;5418328;26;20598;-70
2024/04/25 05:10:44;;;;;;;4.80;3.43;;;4.10;9.30;;;;;;5417959;26;20272;-71
2024/04/25 05:13:09;;;;;;;4.17;3.00;;;4.10;8.90;;;;;;5416476;26;20230;-71
2024/04/25 05:15:38;;;;;;;4.80;3.20;;;4.10;8.10;;;;;;5417332;26;20341;-70
2024/04/25 05:18:05;;;;;;;6.72;3.38;;;4.10;8.50;;;;;;5417284;26;20221;-73
2024/04/25 05:20:30;;;;;;;8.02;4.85;;;4.10;8.60;;;;;;5417766;26;20233;-70
2024/04/25 05:22:56;;;;;;;7.40;4.00;;;4.20;8.40;;;;;;5418159;26;20323;-71
2024/04/25 05:25:22;;;;;;;4.23;2.93;;;4.20;7.80;;;;;;5416087;26;20372;-70
2024/04/25 05:27:48;;;;;;;4.35;3.33;;;4.30;6.80;;;;;;5417782;26;20216;-70
2024/04/25 05:30:15;;;;;;;6.03;3.60;;;4.50;6.90;;;;;;5414907;26;20246;-70
2024/04/25 05:32:41;;;;;;;12.80;4.80;;;4.60;6.60;;;;;;5416620;26;20224;-70
2024/04/25 05:35:06;;;;;;;7.30;3.97;;;4.70;4.20;;;;;;5414643;26;20257;-71
2024/04/25 05:37:32;;;;;;;4.87;3.97;;;4.70;5.20;;;;;;5414815;26;20460;-70
2024/04/25 05:39:58;;;;;;;4.63;3.20;;;4.90;3.20;;;;;;5416518;26;20520;-70
2024/04/25 05:42:23;;;;;;;6.30;3.63;;;4.90;2.80;;;;;;5416061;26;20709;-71
2024/04/25 05:44:49;;;;;;;7.70;4.03;;;5.10;2.80;;;;;;5415491;26;20610;-70
2024/04/25 05:47:19;;;;;;;4.60;3.07;;;5.20;1.00;;;;;;5415274;26;20718;-71
2024/04/25 05:49:45;;;;;;;6.10;3.27;;;5.20;1.00;;;;;;5414938;26;20651;-71
2024/04/25 05:52:12;;;;;;;5.00;3.23;;;5.20;1.00;;;;;;5415891;26;20506;-70
2024/04/25 05:54:38;;;;;;;4.55;3.40;;;5.20;1.20;;;;;;5413439;26;20467;-71
2024/04/25 05:57:04;;;;;;;5.03;3.40;;;5.30;1.00;;;;;;5414975;26;20776;-71
2024/04/25 05:59:30;;;;;;;5.47;3.20;;;5.20;1.00;;;;;;5415165;26;20465;-71
2024/04/25 06:01:55;;;;;;;6.20;3.40;;;5.10;1.00;;;;;;5415424;26;20918;-71
2024/04/25 06:04:21;;;;;;;4.47;2.83;;;5.00;1.00;;;;;;5415026;26;20261;-71
2024/04/25 06:06:46;;;;;;;4.60;3.00;;;5.10;2.10;;;;;;5413106;26;20234;-71
2024/04/25 06:09:12;;;;;;;7.70;3.90;;;5.20;1.80;;;;;;5415379;26;20324;-71
2024/04/25 06:11:38;;;;;;;6.27;3.60;;;5.20;1.00;;;;;;5415001;26;20324;-72
2024/04/25 06:14:03;;;;;;;5.33;3.40;;;5.20;1.00;;;;;;5413316;26;20232;-71
2024/04/25 06:16:29;;;;;;;5.30;3.70;;;5.30;1.30;;;;;;5414931;26;20223;-70
2024/04/25 06:18:55;;;;;;;7.80;4.40;;;5.40;1.00;;;;;;5413168;26;20239;-70
2024/04/25 06:21:20;;;;;;;6.25;3.53;;;5.30;1.00;;;;;;5415184;26;20218;-71
2024/04/25 06:23:46;;;;;;;4.70;3.33;;;5.10;1.00;;;;;;5417005;26;20719;-71
2024/04/25 06:26:12;;;;;;;4.00;3.27;;;5.40;1.00;;;;;;5383883;26;20261;-70
2024/04/25 06:28:38;;;;;;;7.10;3.77;;;5.40;1.00;;;;;;5415000;26;20282;-70
2024/04/25 06:31:04;;;;;;;6.70;3.30;;;5.70;1.00;;;;;;5418028;26;20312;-71
2024/04/25 06:33:29;;;;;;;5.33;3.57;;;5.80;1.00;;;;;;5417871;26;20457;-71
2024/04/25 06:35:55;;;;;;;7.47;2.90;;;5.90;1.00;;;;;;5417683;26;20300;-71
2024/04/25 06:38:20;;;;;;;4.20;2.70;;;6.00;1.00;;;;;;5417946;26;20262;-71
2024/04/25 06:40:46;;;;;;;6.20;3.60;;;6.00;1.00;;;;;;5418148;26;20332;-71
2024/04/25 06:43:12;;;;;;;4.60;2.70;;;6.00;1.00;;;;;;5418140;26;20327;-71
2024/04/25 06:45:40;;;;;;;6.13;3.73;;;6.00;1.00;;;;;;5417224;26;20283;-71
2024/04/25 06:48:10;;;;;;;5.40;3.83;;;6.00;1.00;;;;;;5418098;26;20299;-71
2024/04/25 06:50:37;;;;;;;3.87;2.60;;;6.40;1.00;;;;;;5417482;26;20565;-71
2024/04/25 06:53:03;;;;;;;5.13;3.20;;;6.50;1.00;;;;;;5418073;26;20529;-71
2024/04/25 06:55:28;;;;;;;7.30;3.87;;;6.70;1.00;;;;;;5417656;26;20454;-71
2024/04/25 06:57:54;;;;;;;3.93;2.97;;;7.00;1.00;;;;;;5417621;26;20230;-71
2024/04/25 07:00:20;;;;;;;4.40;2.90;;;7.40;1.00;;;;;;5418088;26;20332;-71
2024/04/25 07:02:46;;;;;;;3.77;2.70;;;7.70;1.00;;;;;;5418255;26;20229;-71
2024/04/25 07:05:12;;;;;;;4.00;2.70;;;7.80;1.00;;;;;;5417899;26;21024;-71
2024/04/25 07:07:37;;;;;;;5.53;2.97;;;7.60;1.00;;;;;;5418757;26;20263;-71
2024/04/25 07:10:03;;;;;;;3.83;2.77;;;7.80;1.00;;;;;;5418374;26;20245;-71
2024/04/25 07:12:31;;;;;;;5.30;3.40;;;7.70;1.00;;;;;;5418518;26;20266;-71
2024/04/25 07:14:57;;;;;;;4.00;3.10;;;7.90;1.00;;;;;;5417983;26;20310;-71
2024/04/25 07:17:23;;;;;;;4.60;3.10;;;8.10;1.00;;;;;;5419176;26;20495;-71
2024/04/25 07:19:51;;;;;;;4.77;2.60;;;8.40;1.00;;;;;;5416702;26;21078;-71
2024/04/25 07:22:17;;;;;;;4.60;2.47;;;8.10;1.00;;;;;;5418561;26;20329;-71
2024/04/25 07:24:43;;;;;;;5.47;2.90;;;7.80;1.00;;;;;;5416665;26;20454;-71
2024/04/25 07:27:09;;;;;;;3.53;2.67;;;8.00;1.00;;;;;;5416103;26;20224;-71
2024/04/25 07:29:42;;;;;;;4.93;2.50;;;8.10;1.00;;;;;;5416637;26;20835;-71
2024/04/25 07:32:08;;;;;;;3.33;2.20;;;7.90;1.00;;;;;;5418185;26;20221;-71
2024/04/25 07:34:33;;;;;;;4.47;2.90;;;8.00;1.00;;;;;;5418134;26;20536;-71
2024/04/25 07:36:59;;;;;;;3.23;2.27;;;8.00;1.00;;;;;;5418039;26;20356;-71
2024/04/25 07:39:25;;;;;;;4.67;2.67;;;7.50;1.00;;;;;;5418145;26;20256;-71
2024/04/25 07:41:51;;;;;;;5.37;2.33;;;7.60;1.00;;;;;;5417776;26;20555;-71
2024/04/25 07:44:16;;;;;;;3.20;2.47;;;7.90;1.00;;;;;;5417876;26;20233;-71
2024/04/25 07:46:43;;;;;;;6.03;2.67;;;8.00;1.00;;;;;;5415732;26;20724;-71
2024/04/25 07:49:12;;;;;;;6.33;2.80;;;8.00;1.00;;;;;;5445057;21;20269;-70
2024/04/25 07:51:38;;;;;;;4.20;3.10;;;8.40;1.00;;;;;;5418847;26;20812;-70
2024/04/25 07:54:03;;;;;;;5.40;2.33;;;8.60;1.00;;;;;;5418528;26;20513;-71
2024/04/25 07:56:29;;;;;;;7.67;3.10;;;9.30;1.00;;;;;;5450228;26;20450;-70
2024/04/25 07:58:55;;;;;;;3.87;2.73;;;9.60;1.00;;;;;;5450559;26;20276;-71
2024/04/25 08:01:20;;;;;;;4.33;2.37;;;9.10;1.00;;;;;;5450713;26;20447;-70
2024/04/25 08:03:46;;;;;;;6.20;2.47;;;9.40;1.00;;;;;;5418655;26;20303;-71
2024/04/25 08:06:12;;;;;;;5.10;2.70;;;9.30;1.00;;;;;;5450225;26;20257;-70
2024/04/25 08:08:38;;;;;;;4.43;2.17;;;9.80;1.00;;;;;;5418584;26;20226;-69
2024/04/25 08:11:04;;;;;;;3.20;2.20;;;10.10;1.00;;;;;;5450723;26;20450;-70
2024/04/25 08:13:30;;;;;;;4.27;2.60;;;10.10;1.00;;;;;;5418322;26;20459;-70
2024/04/25 08:15:55;;;;;;;3.67;2.37;;;9.80;1.00;;;;;;5417859;26;21044;-70
2024/04/25 08:18:21;;;;;;;3.10;2.17;;;10.00;1.00;;;;;;5450290;26;20436;-70
2024/04/25 08:20:47;;;;;;;4.07;2.30;;;10.30;1.00;;;;;;5450121;26;20264;-70
2024/04/25 08:23:13;;;;;;;15.57;3.00;;;9.70;1.00;;;;;;5450298;26;20327;-69
2024/04/25 08:25:38;;;;;;;5.30;2.00;;;9.70;1.00;;;;;;5450013;26;20570;-71
2024/04/25 08:28:07;;;;;;;6.63;2.60;;;9.80;1.00;;;;;;5450790;26;20218;-71
2024/04/25 08:30:33;;;;;;;5.57;2.20;;;9.90;1.00;;;;;;5417985;26;20237;-70
2024/04/25 08:32:58;;;;;;;3.03;2.17;;;10.00;1.00;;;;;;5450532;26;20451;-71
2024/04/25 08:35:24;;;;;;;3.47;2.53;;;10.30;1.00;;;;;;5450924;26;20218;-70
2024/04/25 08:37:49;;;;;;;5.03;2.90;;;10.70;1.00;;;;;;5418546;26;20252;-70
2024/04/25 08:40:15;;;;;;;4.30;2.67;;;10.50;1.00;;;;;;5450089;26;20584;-70
2024/04/25 08:42:43;;;;;;;4.10;2.83;;;10.20;1.00;;;;;;5450385;26;20266;-71
2024/04/25 08:45:10;;;;;;;3.27;2.50;;;10.40;1.00;;;;;;5449425;26;20218;-70
2024/04/25 08:47:38;;;;;;;6.20;3.37;;;11.10;1.00;;;;;;5450273;26;20444;-71
2024/04/25 08:50:06;;;;;;;3.63;2.70;;;11.20;1.00;;;;;;5450072;26;20506;-71
2024/04/25 08:52:33;;;;;;;4.43;2.43;;;11.10;1.00;;;;;;5417443;26;20566;-69
2024/04/25 08:55:00;;;;;;;3.50;2.30;;;10.70;1.00;;;;;;5418130;26;20452;-70
2024/04/25 08:57:29;;;;;;;4.23;2.20;;;10.80;1.00;;;;;;5418392;26;20460;-70
2024/04/25 08:59:55;;;;;;;4.33;2.37;;;11.30;1.00;;;;;;5449815;26;20525;-70
2024/04/25 09:02:23;;;;;;;5.97;2.70;;;11.80;1.00;;;;;;5449758;26;20449;-70
2024/04/25 09:04:52;;;;;;;3.20;2.37;;;11.60;1.00;;;;;;5417964;26;20501;-70
2024/04/25 09:07:18;;;;;;;3.13;1.90;;;11.20;1.00;;;;;;5449960;26;20443;-70
2024/04/25 09:09:46;;;;;;;3.47;2.40;;;11.60;1.00;;;;;;5449406;26;20507;-71
2024/04/25 09:12:12;;;;;;;4.03;2.73;;;11.90;1.00;;;;;;5419626;26;20558;-70
2024/04/25 09:14:38;;;;;;;3.47;2.40;;;11.60;1.00;;;;;;5418816;26;20562;-70
2024/04/25 09:17:15;;;;;;;3.60;2.53;;;11.80;1.00;;;;;;5417652;26;20257;-71
2024/04/25 09:19:40;;;;;;;3.03;2.43;;;11.90;1.00;;;;;;5449618;26;20344;-70
2024/04/25 09:22:06;;;;;;;3.10;2.50;;;12.00;1.00;;;;;;5417804;26;20465;-70
2024/04/25 09:24:32;;;;;;;4.40;2.40;;;11.60;1.00;;;;;;5449550;26;20265;-69
2024/04/25 09:26:57;;;;;;;4.97;2.40;;;11.00;1.00;;;;;;5449406;26;20222;-70
2024/04/25 09:29:23;;;;;;;2.47;1.93;;;10.20;1.00;;;;;;5449750;26;20234;-70
2024/04/25 09:31:51;;;;;;;3.30;2.27;;;10.20;1.00;;;;;;5458187;26;20268;-69
2024/04/25 09:34:16;;;;;;;3.87;2.30;;;10.70;1.00;;;;;;5461083;26;20404;-70
2024/04/25 09:36:42;;;;;;;4.13;2.30;;;10.20;1.00;;;;;;5461249;26;20459;-70
2024/04/25 09:39:08;;;;;;;6.37;2.37;;;10.50;1.00;;;;;;5427211;26;20539;-70
2024/04/25 09:41:34;;;;;;;3.60;2.20;;;11.10;1.00;;;;;;5452488;26;20504;-70
2024/04/25 09:44:00;;;;;;;4.33;2.27;;;10.80;1.00;;;;;;5419781;26;20245;-71
2024/04/25 09:46:37;;;;;;;2.67;2.10;;;11.00;1.00;;;;;;5450518;26;20562;-70
2024/04/25 09:49:05;;;;;;;6.07;2.87;;;11.60;1.00;;;;;;5450010;26;20476;-71
2024/04/25 09:51:38;;;;;;;3.50;2.90;;;12.00;1.00;;;;;;5450354;26;20512;-71
2024/04/25 09:54:16;;;;;;;3.00;2.70;;;12.00;1.00;;;;;;5417978;26;20974;-69
2024/04/25 09:56:43;;;;;;;4.10;3.27;;;12.00;1.00;;;;;;5450131;26;20828;-71
2024/04/25 09:59:16;;;;;;;3.70;2.50;;;11.60;1.00;;;;;;5449681;26;20480;-69
2024/04/25 10:01:46;;;;;;;3.80;2.80;;;10.60;1.00;;;;;;5417563;26;20546;-70
2024/04/25 10:04:12;;;;;;;5.87;2.77;;;10.00;1.00;;;;;;5447364;26;20440;-69
2024/04/25 10:06:39;;;;;;;6.00;2.83;;;9.90;1.00;;;;;;5449215;26;20958;-71
2024/04/25 10:09:05;;;;;;;2.70;2.00;;;9.70;1.00;;;;;;5448838;26;20460;-71
2024/04/25 10:11:30;;;;;;;3.33;2.47;;;9.20;1.00;;;;;;5449520;26;20448;-70
2024/04/25 10:13:56;;;;;;;2.03;1.60;;;9.10;1.00;;;;;;5448519;26;20806;-69
2024/04/25 10:16:22;;;;;;;4.93;2.10;;;8.70;1.00;;;;;;5448342;26;20396;-71
2024/04/25 10:18:52;;;;;;;3.30;1.67;;;8.60;1.00;;;;;;5448962;26;20746;-71
2024/04/25 10:21:21;;;;;;;6.63;2.13;;;9.20;1.00;;;;;;5416933;26;20869;-69
2024/04/25 10:23:52;;;;;;;6.20;2.47;;;10.00;1.00;;;;;;5448204;26;20704;-70
2024/04/25 10:26:19;;;;;;;4.53;1.90;;;10.50;1.00;;;;;;5448445;26;20444;-71
2024/04/25 10:29:02;;;;;;;5.37;2.10;;;10.90;1.00;;;;;;5448706;26;20456;-70
2024/04/25 10:31:35;;;;;;;6.33;2.23;;;10.80;1.00;;;;;;5417225;26;20646;-70
2024/04/25 10:34:01;;;;;;;3.37;2.30;;;10.80;1.00;;;;;;5449509;26;20444;-70
2024/04/25 10:36:27;;;;;;;2.83;1.80;;;10.10;1.00;;;;;;5417251;26;20487;-72
2024/04/25 10:38:55;;;;;;;2.93;1.90;;;10.90;1.00;;;;;;5451659;26;20272;-70
2024/04/25 10:41:37;;;;;;;3.43;1.80;;;11.00;1.00;;;;;;5450284;26;20433;-70
2024/04/25 10:44:07;;;;;;;2.57;1.60;;;11.80;1.00;;;;;;5451160;26;20572;-71
2024/04/25 10:46:33;;;;;;;2.87;2.20;;;11.90;1.00;;;;;;5449901;26;20557;-71
2024/04/25 10:48:59;;;;;;;2.67;1.60;;;11.60;1.00;;;;;;5452694;26;20503;-69
2024/04/25 10:51:25;;;;;;;3.20;2.77;;;10.90;1.00;;;;;;5465029;26;20455;-70
2024/04/25 10:53:51;;;;;;;3.63;2.30;;;10.50;1.00;;;;;;5465569;26;20371;-70
2024/04/25 10:56:17;;;;;;;2.63;1.73;;;10.10;1.00;;;;;;5462705;26;20447;-71
2024/04/25 10:58:53;;;;;;;2.87;2.00;;;9.50;1.00;;;;;;5461379;26;20292;-72
2024/04/25 11:01:29;;;;;;;2.50;1.40;;;9.10;1.00;;;;;;5428110;26;20507;-72
2024/04/25 11:03:56;;;;;;;2.37;1.50;;;8.80;1.00;;;;;;5423138;26;20546;-70
2024/04/25 11:06:24;;;;;;;4.63;1.50;;;8.50;1.00;;;;;;5448369;26;20455;-71
2024/04/25 11:08:50;;;;;;;2.70;2.10;;;8.10;1.00;;;;;;5416078;26;20473;-69
2024/04/25 11:11:16;;;;;;;5.27;2.90;;;8.10;1.00;;;;;;5448260;26;20801;-70
2024/04/25 11:13:44;;;;;;;3.40;2.10;;;7.70;1.00;;;;;;5448365;26;20495;-70
2024/04/25 11:16:10;;;;;;;5.27;2.07;;;7.40;1.00;;;;;;5449976;26;20520;-70
2024/04/25 11:18:37;;;;;;;5.23;2.60;;;7.20;1.00;;;;;;5419830;26;21050;-70
2024/04/25 11:21:07;;;;;;;3.23;1.80;;;7.20;1.00;;;;;;5451597;26;20216;-71
2024/04/25 11:23:33;;;;;;;4.00;2.80;;;6.90;1.00;;;;;;5419831;26;20618;-72
2024/04/25 11:26:02;;;;;;;3.73;2.50;;;6.90;1.00;;;;;;5451085;26;20450;-69
2024/04/25 11:28:28;;;;;;;5.73;2.97;;;7.10;1.00;;;;;;5451508;26;20537;-70
2024/04/25 11:30:54;;;;;;;5.20;3.17;;;7.30;1.00;;;;;;5451751;26;20560;-70
2024/04/25 11:33:26;;;;;;;3.30;2.37;;;8.00;1.00;;;;;;5451817;26;20461;-70
2024/04/25 11:35:55;;;;;;;3.50;1.97;;;8.50;1.00;;;;;;5451228;26;20567;-70
2024/04/25 11:38:24;;;;;;;3.80;2.67;;;9.00;1.00;;;;;;5452200;26;20440;-70
2024/04/25 11:40:50;;;;;;;3.40;2.00;;;9.50;1.00;;;;;;5452250;26;20881;-70
2024/04/25 11:43:17;;;;;;;3.13;2.27;;;9.80;1.00;;;;;;5452055;26;20448;-70
2024/04/25 11:45:45;;;;;;;5.80;2.17;;;10.00;1.00;;;;;;5451420;26;20510;-71
2024/04/25 11:48:12;;;;;;;4.60;3.20;;;10.20;1.00;;;;;;5451678;26;20591;-71
2024/04/25 11:50:38;;;;;;;3.67;2.10;;;10.40;1.00;;;;;;5451200;26;20526;-71
2024/04/25 11:53:09;;;;;;;3.07;2.10;;;10.30;1.00;;;;;;5451675;26;20511;-70
2024/04/25 11:55:38;;;;;;;3.07;1.83;;;10.10;1.00;;;;;;5451134;26;20676;-70
2024/04/25 11:58:07;;;;;;;3.50;2.80;;;10.10;1.00;;;;;;5419848;26;20464;-69
2024/04/25 12:00:37;;;;;;;9.80;2.80;;;10.40;1.00;;;;;;5451820;26;20480;-71
2024/04/25 12:03:03;;;;;;;3.37;2.40;;;11.00;1.00;;;;;;5451597;26;20566;-70
2024/04/25 12:05:31;;;;;;;3.17;2.80;;;11.40;1.00;;;;;;5419289;26;20860;-70
2024/04/25 12:08:02;;;;;;;4.00;3.40;;;11.20;1.00;;;;;;5451291;26;20447;-71
2024/04/25 12:10:30;;;;;;;3.10;2.07;;;11.90;1.00;;;;;;5451039;26;20778;-71
2024/04/25 12:12:55;;;;;;;2.70;1.93;;;11.70;1.00;;;;;;5419700;26;20452;-70
2024/04/25 12:15:21;;;;;;;2.70;1.70;;;12.10;1.00;;;;;;5450902;26;20444;-70
2024/04/25 12:17:47;;;;;;;4.53;1.77;;;12.20;1.00;;;;;;5451134;26;20662;-71
2024/04/25 12:20:12;;;;;;;2.80;2.40;;;12.60;1.00;;;;;;5450787;26;20280;-71
2024/04/25 12:22:38;;;;;;;3.27;2.10;;;12.90;1.00;;;;;;5451019;26;20219;-70
2024/04/25 12:25:04;;;;;;;2.30;2.10;;;12.40;1.00;;;;;;5450220;26;20311;-71
2024/04/25 12:27:29;;;;;;;3.03;1.90;;;11.20;1.00;;;;;;5417272;26;20253;-70
2024/04/25 12:29:55;;;;;;;3.97;2.47;;;10.50;1.00;;;;;;5450759;26;20706;-70
2024/04/25 12:32:20;;;;;;;4.27;2.73;;;10.70;1.00;;;;;;5450564;26;20689;-70
2024/04/25 12:34:46;;;;;;;5.87;2.60;;;10.40;1.00;;;;;;5449940;26;20649;-71
2024/04/25 12:37:11;;;;;;;2.30;1.70;;;10.50;1.00;;;;;;5449524;26;20222;-69
2024/04/25 12:39:41;;;;;;;2.30;1.93;;;10.50;1.00;;;;;;5449276;26;20294;-70
2024/04/25 12:42:08;;;;;;;4.00;2.00;;;10.90;1.00;;;;;;5417983;26;20266;-70
2024/04/25 12:44:33;;;;;;;2.37;2.00;;;11.30;1.00;;;;;;5450074;26;20818;-71
2024/04/25 12:46:59;;;;;;;2.63;1.87;;;11.40;1.00;;;;;;5449091;26;20449;-70
2024/04/25 12:49:32;;;;;;;4.00;2.53;;;11.90;1.00;;;;;;5449183;26;20269;-71
2024/04/25 12:51:59;;;;;;;2.80;2.40;;;12.30;1.00;;;;;;5449526;26;20559;-70
2024/04/25 12:54:25;;;;;;;2.87;2.50;;;12.40;1.00;;;;;;5449562;26;20515;-71
2024/04/25 12:56:50;;;;;;;4.60;2.33;;;12.60;1.00;;;;;;5449324;26;20445;-70
2024/04/25 12:59:16;;;;;;;2.57;2.37;;;12.80;1.00;;;;;;5449483;26;20680;-70